WXM80 ListenWXM80 Stop

You find our weather info also at:

UK Metoffice

WeatherCloud

Weather Underground

Northeastern Weather Network

AWEKAS

Citizen Weather Observer Program (CWOP)

HAMweather, WeatherForYou, PWS Weather


Weather Underground History page Text

Daily Summary for June 13, 2016 Units:  English    Metric   Both
« Previous Day
Next Day »
Daily Weekly Monthly Yearly Custom
  High: Low: Average:
Temperature: 79.8 °F 56.9 °F 66.9 °F
Dew Point: 60.2 °F 48.0 °F 53.2 °F
Humidity: 74 % 45 % 62 %
Wind Speed: 10.5 mph 0.0 mph 3.7 mph
Wind Gust: 19.6 mph - -
Wind:- - West
Pressure: 29.83 in 29.73 in -
Precipitation: 0.00 in    
Historical Graphs
 
 
Tabular Data for June 13, 2016
Time Temperature Dew Point Pressure Wind Wind Speed Wind Gust Humidity Rainfall Rate (Hourly)
00:00 61.5 °F 50.4 °F 29.75 in NNW 4.2 mph 11.5 mph 67 % 0.00 in
00:05 61.4 °F 50.3 °F 29.75 in North 5.9 mph 8.1 mph 67 % 0.00 in
00:10 61.3 °F 50.2 °F 29.75 in WNW 2.3 mph 12.0 mph 67 % 0.00 in
00:15 61.2 °F 50.2 °F 29.75 in NNW 3.2 mph 6.9 mph 67 % 0.00 in
00:20 61.2 °F 50.6 °F 29.75 in West 4.6 mph 11.5 mph 68 % 0.00 in
00:25 61.1 °F 50.5 °F 29.75 in North 3.3 mph 8.1 mph 68 % 0.00 in
00:30 61.1 °F 50.8 °F 29.75 in NNW 2.3 mph 4.6 mph 69 % 0.00 in
00:35 61.1 °F 50.8 °F 29.75 in NNW 3.2 mph 5.8 mph 69 % 0.00 in
00:40 61.1 °F 50.1 °F 29.75 in NW 3.6 mph 6.9 mph 67 % 0.00 in
00:46 61.0 °F 50.0 °F 29.75 in WNW 4.1 mph 8.0 mph 67 % 0.00 in
00:51 60.9 °F 49.9 °F 29.75 in North 3.4 mph 11.5 mph 67 % 0.00 in
01:01 60.8 °F 49.4 °F 29.75 in NW 7.5 mph 11.5 mph 66 % 0.00 in
01:06 60.8 °F 49.8 °F 29.75 in WNW 2.8 mph 5.8 mph 67 % 0.00 in
01:11 60.8 °F 49.8 °F 29.75 in WNW 2.1 mph 9.2 mph 67 % 0.00 in
01:16 60.8 °F 49.4 °F 29.75 in NNW 4.3 mph 11.5 mph 66 % 0.00 in
01:21 60.8 °F 49.8 °F 29.75 in NNE 2.6 mph 3.5 mph 67 % 0.00 in
01:26 60.9 °F 50.3 °F 29.75 in NNW 3.3 mph 5.0 mph 68 % 0.00 in
01:31 60.8 °F 49.8 °F 29.75 in NNW 4.2 mph 8.1 mph 67 % 0.00 in
01:37 60.9 °F 50.3 °F 29.75 in North 5.1 mph 9.2 mph 68 % 0.00 in
01:42 60.8 °F 50.2 °F 29.75 in North 2.8 mph 8.1 mph 68 % 0.00 in
01:47 60.8 °F 50.2 °F 29.75 in North 3.0 mph 6.9 mph 68 % 0.00 in
01:52 60.7 °F 49.7 °F 29.75 in North 5.3 mph 11.5 mph 67 % 0.00 in
01:57 60.7 °F 49.7 °F 29.75 in NNE 4.2 mph 5.8 mph 67 % 0.00 in
02:02 60.7 °F 49.3 °F 29.74 in NNW 4.2 mph 11.0 mph 66 % 0.00 in
02:07 60.6 °F 49.6 °F 29.75 in NW 2.9 mph 8.1 mph 67 % 0.00 in
02:12 60.6 °F 49.6 °F 29.75 in NW 3.6 mph 6.9 mph 67 % 0.00 in
02:17 60.5 °F 49.5 °F 29.75 in NNW 3.1 mph 11.5 mph 67 % 0.00 in
02:22 60.5 °F 50.3 °F 29.75 in NNW 2.4 mph 6.9 mph 69 % 0.00 in
02:28 60.4 °F 50.2 °F 29.75 in NNW 4.1 mph 9.2 mph 69 % 0.00 in
02:33 60.2 °F 50.0 °F 29.75 in North 5.2 mph 10.4 mph 69 % 0.00 in
02:38 60.0 °F 49.8 °F 29.75 in NNE 2.6 mph 9.2 mph 69 % 0.00 in
02:43 59.9 °F 49.7 °F 29.75 in North 5.0 mph 6.9 mph 69 % 0.00 in
02:48 59.8 °F 50.0 °F 29.76 in North 4.6 mph 8.1 mph 70 % 0.00 in
02:53 59.6 °F 49.4 °F 29.76 in NE 6.4 mph 8.1 mph 69 % 0.00 in
02:58 59.6 °F 49.8 °F 29.76 in North 4.8 mph 8.0 mph 70 % 0.00 in
03:03 59.5 °F 49.7 °F 29.75 in NNW 1.0 mph 5.8 mph 70 % 0.00 in
03:08 59.5 °F 49.7 °F 29.76 in North 2.5 mph 6.9 mph 70 % 0.00 in
03:13 59.5 °F 49.7 °F 29.76 in North 4.0 mph 9.2 mph 70 % 0.00 in
03:24 59.3 °F 49.1 °F 29.75 in NNE 3.0 mph 9.2 mph 69 % 0.00 in
03:29 59.1 °F 49.3 °F 29.75 in NW 2.8 mph 8.1 mph 70 % 0.00 in
03:34 59.0 °F 49.2 °F 29.75 in East 2.7 mph 8.1 mph 70 % 0.00 in
03:39 58.8 °F 49.0 °F 29.75 in NNW 4.0 mph 7.0 mph 70 % 0.00 in
03:44 58.7 °F 49.3 °F 29.76 in NNW 0.5 mph 2.3 mph 71 % 0.00 in
03:49 58.6 °F 49.6 °F 29.75 in WNW 1.4 mph 6.9 mph 72 % 0.00 in
03:54 58.4 °F 49.4 °F 29.75 in ENE 2.6 mph 3.5 mph 72 % 0.00 in
04:04 58.2 °F 48.8 °F 29.76 in NW 5.3 mph 11.5 mph 71 % 0.00 in
04:10 58.1 °F 48.0 °F 29.76 in NW 4.4 mph 11.5 mph 69 % 0.00 in
04:15 58.1 °F 48.4 °F 29.76 in WNW 3.7 mph 12.0 mph 70 % 0.00 in
04:20 58.1 °F 48.4 °F 29.76 in ENE 3.7 mph 11.5 mph 70 % 0.00 in
04:25 58.1 °F 48.4 °F 29.76 in NE 4.1 mph 8.1 mph 70 % 0.00 in
04:30 58.1 °F 48.7 °F 29.76 in WSW 5.8 mph 13.0 mph 71 % 0.00 in
04:35 58.0 °F 48.6 °F 29.76 in ENE 2.8 mph 6.9 mph 71 % 0.00 in
04:40 58.0 °F 49.0 °F 29.77 in WNW 6.9 mph 13.0 mph 72 % 0.00 in
04:45 57.9 °F 48.6 °F 29.76 in NW 6.2 mph 11.5 mph 71 % 0.00 in
04:50 57.7 °F 48.4 °F 29.76 in WNW 4.6 mph 11.5 mph 71 % 0.00 in
04:55 57.5 °F 48.5 °F 29.76 in West 5.8 mph 11.5 mph 72 % 0.00 in
05:01 57.4 °F 48.4 °F 29.77 in West 4.9 mph 11.5 mph 72 % 0.00 in
05:06 57.3 °F 48.3 °F 29.77 in SSW 2.0 mph 5.8 mph 72 % 0.00 in
05:11 57.2 °F 48.3 °F 29.77 in West 5.2 mph 8.1 mph 72 % 0.00 in
05:16 57.1 °F 48.2 °F 29.77 in WNW 4.9 mph 9.2 mph 72 % 0.00 in
05:21 57.1 °F 48.5 °F 29.78 in North 4.0 mph 11.5 mph 73 % 0.00 in
05:26 57.0 °F 48.4 °F 29.78 in NW 7.1 mph 17.3 mph 73 % 0.00 in
05:31 57.0 °F 48.4 °F 29.78 in NNE 3.6 mph 8.1 mph 73 % 0.00 in
05:36 56.9 °F 48.3 °F 29.78 in WNW 4.0 mph 9.2 mph 73 % 0.00 in
05:41 56.9 °F 48.3 °F 29.77 in North 3.2 mph 7.0 mph 73 % 0.00 in
05:46 56.9 °F 48.3 °F 29.78 in WNW 3.2 mph 9.2 mph 73 % 0.00 in
05:52 56.9 °F 48.3 °F 29.78 in NNE 6.2 mph 11.5 mph 73 % 0.00 in
05:57 56.9 °F 48.3 °F 29.78 in NW 6.9 mph 14.0 mph 73 % 0.00 in
06:02 57.0 °F 48.4 °F 29.78 in NNW 4.8 mph 11.5 mph 73 % 0.00 in
06:07 57.0 °F 48.4 °F 29.79 in NW 1.6 mph 6.0 mph 73 % 0.00 in
06:12 57.1 °F 48.9 °F 29.79 in NNW 2.6 mph 4.6 mph 74 % 0.00 in
06:17 57.2 °F 48.6 °F 29.79 in West 5.1 mph 16.0 mph 73 % 0.00 in
06:22 57.3 °F 48.7 °F 29.79 in NW 8.9 mph 15.0 mph 73 % 0.00 in
06:27 57.6 °F 49.0 °F 29.79 in West 6.6 mph 11.5 mph 73 % 0.00 in
06:32 57.8 °F 49.2 °F 29.78 in NNW 4.6 mph 9.2 mph 73 % 0.00 in
06:37 58.1 °F 49.5 °F 29.79 in NW 8.1 mph 11.5 mph 73 % 0.00 in
06:43 58.3 °F 49.7 °F 29.79 in West 3.8 mph 13.0 mph 73 % 0.00 in
06:48 58.6 °F 49.6 °F 29.79 in SW 4.0 mph 10.4 mph 72 % 0.00 in
06:53 58.8 °F 49.8 °F 29.79 in NW 3.9 mph 12.0 mph 72 % 0.00 in
06:58 59.0 °F 49.2 °F 29.79 in SSW 4.9 mph 9.2 mph 70 % 0.00 in
07:03 59.3 °F 49.5 °F 29.79 in WNW 10.5 mph 19.6 mph 70 % 0.00 in
07:08 59.5 °F 50.1 °F 29.79 in NNW 4.1 mph 11.5 mph 71 % 0.00 in
07:13 59.9 °F 50.5 °F 29.79 in NW 4.8 mph 13.8 mph 71 % 0.00 in
07:18 60.3 °F 50.5 °F 29.79 in NNW 5.2 mph 10.4 mph 70 % 0.00 in
07:23 60.5 °F 50.3 °F 29.79 in South 3.7 mph 12.7 mph 69 % 0.00 in
07:28 60.8 °F 50.6 °F 29.80 in NW 4.1 mph 8.1 mph 69 % 0.00 in
07:34 60.9 °F 50.3 °F 29.79 in NNE 2.8 mph 11.5 mph 68 % 0.00 in
07:39 61.0 °F 51.1 °F 29.80 in North 3.4 mph 11.5 mph 70 % 0.00 in
07:44 61.0 °F 51.1 °F 29.80 in WNW 6.4 mph 10.4 mph 70 % 0.00 in
07:49 60.8 °F 50.6 °F 29.80 in NNE 4.6 mph 9.2 mph 69 % 0.00 in
07:54 60.7 °F 50.9 °F 29.80 in NNE 4.6 mph 10.4 mph 70 % 0.00 in
07:59 60.7 °F 51.2 °F 29.80 in NNW 2.8 mph 5.8 mph 71 % 0.00 in
08:04 60.8 °F 51.0 °F 29.80 in North 3.8 mph 7.0 mph 70 % 0.00 in
08:09 60.8 °F 50.6 °F 29.80 in West 3.6 mph 15.0 mph 69 % 0.00 in
08:14 60.8 °F 50.6 °F 29.80 in NW 6.4 mph 10.4 mph 69 % 0.00 in
08:20 60.9 °F 51.0 °F 29.80 in North 4.1 mph 10.4 mph 70 % 0.00 in
08:25 60.9 °F 51.0 °F 29.80 in NNW 4.3 mph 8.1 mph 70 % 0.00 in
08:30 61.1 °F 51.2 °F 29.80 in North 4.6 mph 13.8 mph 70 % 0.00 in
08:35 61.3 °F 51.8 °F 29.80 in NNW 5.7 mph 11.5 mph 71 % 0.00 in
08:40 61.7 °F 51.8 °F 29.80 in WNW 2.7 mph 6.0 mph 70 % 0.00 in
08:45 61.9 °F 52.0 °F 29.81 in NNW 2.8 mph 8.1 mph 70 % 0.00 in
08:50 62.1 °F 51.8 °F 29.81 in WNW 3.7 mph 8.1 mph 69 % 0.00 in
08:55 62.2 °F 51.5 °F 29.81 in WSW 1.9 mph 5.8 mph 68 % 0.00 in
09:00 62.3 °F 51.6 °F 29.81 in WNW 3.6 mph 8.1 mph 68 % 0.00 in
09:11 62.5 °F 51.8 °F 29.82 in NW 3.2 mph 10.4 mph 68 % 0.00 in
09:16 62.6 °F 51.9 °F 29.82 in West 2.3 mph 4.6 mph 68 % 0.00 in
09:21 62.7 °F 52.0 °F 29.82 in WNW 4.8 mph 9.2 mph 68 % 0.00 in
09:26 63.0 °F 51.9 °F 29.82 in WNW 4.3 mph 9.2 mph 67 % 0.00 in
09:31 63.2 °F 52.1 °F 29.82 in SW 1.9 mph 10.0 mph 67 % 0.00 in
09:36 63.6 °F 52.0 °F 29.82 in NW 4.1 mph 6.0 mph 66 % 0.00 in
09:46 64.8 °F 52.8 °F 29.83 in NW 4.0 mph 8.1 mph 65 % 0.00 in
09:51 65.7 °F 52.8 °F 29.82 in NW 5.4 mph 9.2 mph 63 % 0.00 in
09:56 66.7 °F 54.1 °F 29.83 in WSW 5.2 mph 8.1 mph 64 % 0.00 in
10:02 67.4 °F 53.0 °F 29.83 in NNW 5.0 mph 13.8 mph 60 % 0.00 in
10:07 68.1 °F 53.2 °F 29.83 in West 1.5 mph 8.1 mph 59 % 0.00 in
10:12 69.0 °F 53.1 °F 29.83 in NNW 6.2 mph 11.5 mph 57 % 0.00 in
10:17 69.4 °F 53.0 °F 29.83 in WSW 4.7 mph 8.1 mph 56 % 0.00 in
10:22 69.8 °F 53.4 °F 29.82 in West 2.5 mph 5.8 mph 56 % 0.00 in
10:27 70.3 °F 53.9 °F 29.82 in West 6.3 mph 13.0 mph 56 % 0.00 in
10:32 70.4 °F 53.0 °F 29.82 in SSW 5.0 mph 9.2 mph 54 % 0.00 in
10:37 70.5 °F 53.6 °F 29.82 in NNW 3.8 mph 9.2 mph 55 % 0.00 in
10:42 70.8 °F 53.8 °F 29.83 in WSW 6.4 mph 8.1 mph 55 % 0.00 in
10:47 71.1 °F 54.6 °F 29.83 in WNW 2.4 mph 6.9 mph 56 % 0.00 in
10:53 71.7 °F 56.1 °F 29.83 in WNW 3.1 mph 9.2 mph 58 % 0.00 in
10:58 72.6 °F 58.4 °F 29.83 in NNE 1.8 mph 3.5 mph 61 % 0.00 in
11:08 73.6 °F 57.4 °F 29.82 in NNW 3.8 mph 9.2 mph 57 % 0.00 in
11:13 74.3 °F 57.1 °F 29.82 in West 4.2 mph 7.0 mph 55 % 0.00 in
11:18 74.4 °F 57.2 °F 29.81 in NNW 2.7 mph 8.0 mph 55 % 0.00 in
11:23 74.8 °F 58.1 °F 29.80 in NNW 2.3 mph 6.9 mph 56 % 0.00 in
11:28 75.4 °F 57.1 °F 29.81 in WNW 3.4 mph 5.0 mph 53 % 0.00 in
11:33 75.6 °F 58.3 °F 29.81 in NW 3.9 mph 7.0 mph 55 % 0.00 in
11:38 75.3 °F 57.0 °F 29.80 in NW 3.6 mph 8.1 mph 53 % 0.00 in
11:44 75.6 °F 57.8 °F 29.80 in WNW 3.0 mph 6.9 mph 54 % 0.00 in
11:49 75.8 °F 57.4 °F 29.80 in West 1.6 mph 9.2 mph 53 % 0.00 in
11:54 76.0 °F 57.1 °F 29.80 in NNE 3.4 mph 8.1 mph 52 % 0.00 in
11:59 76.1 °F 57.7 °F 29.79 in NW 3.4 mph 8.1 mph 53 % 0.00 in
12:04 76.5 °F 58.6 °F 29.79 in NW 1.8 mph 3.5 mph 54 % 0.00 in
12:09 76.8 °F 55.0 °F 29.79 in WNW 6.7 mph 11.5 mph 47 % 0.00 in
12:14 76.8 °F 56.8 °F 29.79 in WSW 5.4 mph 8.1 mph 50 % 0.00 in
12:19 76.8 °F 55.6 °F 29.78 in WNW 3.4 mph 5.8 mph 48 % 0.00 in
12:24 77.0 °F 55.8 °F 29.78 in WSW 6.4 mph 9.2 mph 48 % 0.00 in
12:29 77.1 °F 57.6 °F 29.77 in West 4.2 mph 6.0 mph 51 % 0.00 in
12:34 77.3 °F 57.8 °F 29.77 in North 2.3 mph 6.9 mph 51 % 0.00 in
12:39 77.7 °F 57.6 °F 29.77 in WNW 3.5 mph 9.0 mph 50 % 0.00 in
12:45 78.0 °F 58.4 °F 29.77 in NW 3.0 mph 9.0 mph 51 % 0.00 in
12:50 78.0 °F 58.4 °F 29.77 in NW 3.3 mph 4.6 mph 51 % 0.00 in
12:55 77.7 °F 56.4 °F 29.77 in NNW 8.9 mph 8.9 mph 48 % 0.00 in
13:00 77.6 °F 58.0 °F 29.77 in WNW 4.3 mph 10.4 mph 51 % 0.00 in
13:05 77.9 °F 57.8 °F 29.77 in WNW 1.0 mph 6.9 mph 50 % 0.00 in
13:10 78.2 °F 56.9 °F 29.77 in West 1.9 mph 11.5 mph 48 % 0.00 in
13:15 78.3 °F 58.7 °F 29.77 in WNW 4.5 mph 10.0 mph 51 % 0.00 in
13:20 78.6 °F 59.0 °F 29.76 in West 2.9 mph 4.0 mph 51 % 0.00 in
13:25 78.6 °F 58.4 °F 29.76 in WNW 3.9 mph 9.2 mph 50 % 0.00 in
13:30 78.4 °F 59.3 °F 29.77 in SW 3.3 mph 8.1 mph 52 % 0.00 in
13:36 78.5 °F 58.3 °F 29.77 in NNW 4.0 mph 10.0 mph 50 % 0.00 in
13:41 78.3 °F 56.4 °F 29.77 in NNE 5.8 mph 12.0 mph 47 % 0.00 in
13:46 78.6 °F 59.5 °F 29.76 in SE 1.4 mph 3.5 mph 52 % 0.00 in
13:51 79.0 °F 58.2 °F 29.76 in NW 3.6 mph 10.0 mph 49 % 0.00 in
13:56 78.9 °F 59.2 °F 29.76 in East 2.3 mph 6.9 mph 51 % 0.00 in
14:01 79.1 °F 58.9 °F 29.75 in SE 1.7 mph 6.9 mph 50 % 0.00 in
14:06 79.3 °F 59.6 °F 29.75 in North 4.4 mph 6.9 mph 51 % 0.00 in
14:11 79.4 °F 60.2 °F 29.75 in WNW 0.9 mph 8.1 mph 52 % 0.00 in
14:16 79.6 °F 58.2 °F 29.75 in NW 4.6 mph 8.1 mph 48 % 0.00 in
14:21 79.8 °F 58.9 °F 29.74 in NNW 5.4 mph 6.9 mph 49 % 0.00 in
14:27 79.7 °F 58.8 °F 29.74 in NW 1.1 mph 8.1 mph 49 % 0.00 in
14:32 79.7 °F 58.3 °F 29.74 in WSW 5.3 mph 8.0 mph 48 % 0.00 in
14:37 79.6 °F 57.0 °F 29.74 in WSW 8.1 mph 11.5 mph 46 % 0.00 in
14:42 79.5 °F 56.9 °F 29.74 in WNW 3.3 mph 6.9 mph 46 % 0.00 in
14:47 79.3 °F 56.7 °F 29.73 in ESE 3.1 mph 6.9 mph 46 % 0.00 in
14:57 79.3 °F 57.3 °F 29.73 in WNW 1.5 mph 5.8 mph 47 % 0.00 in
15:02 79.4 °F 56.8 °F 29.73 in WNW 5.1 mph 8.1 mph 46 % 0.00 in
15:07 79.3 °F 57.3 °F 29.73 in SW 3.7 mph 8.1 mph 47 % 0.00 in
15:13 79.4 °F 57.4 °F 29.73 in WNW 7.5 mph 8.0 mph 47 % 0.00 in
15:18 79.1 °F 55.9 °F 29.73 in WNW 4.7 mph 9.2 mph 45 % 0.00 in
15:23 79.1 °F 58.9 °F 29.73 in NW 3.2 mph 10.4 mph 50 % 0.00 in
15:28 79.3 °F 56.7 °F 29.73 in West 5.1 mph 11.5 mph 46 % 0.00 in
15:33 79.3 °F 57.9 °F 29.73 in WNW 4.0 mph 7.0 mph 48 % 0.00 in
15:38 79.0 °F 55.8 °F 29.73 in WSW 6.7 mph 11.0 mph 45 % 0.00 in
15:43 78.7 °F 56.8 °F 29.73 in WNW 7.2 mph 11.5 mph 47 % 0.00 in
15:48 78.5 °F 57.7 °F 29.73 in North 4.4 mph 4.6 mph 49 % 0.00 in
15:53 78.5 °F 56.0 °F 29.73 in WNW 5.8 mph 12.7 mph 46 % 0.00 in
15:58 78.5 °F 56.0 °F 29.73 in West 4.8 mph 11.5 mph 46 % 0.00 in
16:04 78.4 °F 55.9 °F 29.74 in NNW 6.5 mph 11.5 mph 46 % 0.00 in
16:09 78.4 °F 57.1 °F 29.74 in WNW 5.6 mph 9.2 mph 48 % 0.00 in
16:14 78.3 °F 57.0 °F 29.73 in NW 3.7 mph 9.0 mph 48 % 0.00 in
16:19 78.1 °F 56.8 °F 29.73 in West 5.6 mph 8.1 mph 48 % 0.00 in
16:24 77.9 °F 57.2 °F 29.73 in WNW 7.4 mph 11.5 mph 49 % 0.00 in
16:29 77.6 °F 58.0 °F 29.74 in WNW 3.5 mph 8.1 mph 51 % 0.00 in
16:39 76.3 °F 56.3 °F 29.74 in NW 6.6 mph 11.0 mph 50 % 0.00 in
16:44 75.5 °F 55.6 °F 29.74 in NW 4.4 mph 5.8 mph 50 % 0.00 in
16:49 75.1 °F 56.3 °F 29.74 in West 4.0 mph 11.5 mph 52 % 0.00 in
16:55 74.6 °F 55.3 °F 29.74 in West 7.7 mph 10.4 mph 51 % 0.00 in
17:00 73.9 °F 55.7 °F 29.74 in West 3.7 mph 6.9 mph 53 % 0.00 in
17:10 73.1 °F 54.9 °F 29.73 in WNW 5.1 mph 9.2 mph 53 % 0.00 in
17:15 72.8 °F 54.7 °F 29.74 in WNW 4.5 mph 8.1 mph 53 % 0.00 in
17:20 72.4 °F 54.3 °F 29.74 in WSW 5.6 mph 10.4 mph 53 % 0.00 in
17:25 72.1 °F 55.5 °F 29.75 in West 1.3 mph 7.0 mph 56 % 0.00 in
17:30 71.9 °F 55.3 °F 29.74 in NNE 3.4 mph 8.1 mph 56 % 0.00 in
17:35 71.7 °F 55.7 °F 29.74 in NW 4.1 mph 9.2 mph 57 % 0.00 in
17:40 71.5 °F 55.5 °F 29.73 in North 2.5 mph 6.9 mph 57 % 0.00 in
17:46 71.3 °F 55.3 °F 29.73 in NNW 4.4 mph 9.2 mph 57 % 0.00 in
17:51 71.2 °F 55.7 °F 29.73 in West 0.9 mph 3.5 mph 58 % 0.00 in
17:56 71.1 °F 55.1 °F 29.73 in WNW 0.3 mph 2.3 mph 57 % 0.00 in
18:01 71.0 °F 55.5 °F 29.73 in NW 2.9 mph 6.9 mph 58 % 0.00 in
18:06 71.0 °F 55.5 °F 29.73 in West 2.6 mph 4.6 mph 58 % 0.00 in
18:11 70.9 °F 54.9 °F 29.73 in West 1.9 mph 4.6 mph 57 % 0.00 in
18:16 70.8 °F 55.3 °F 29.74 in WNW 0.5 mph 4.6 mph 58 % 0.00 in
18:21 70.8 °F 54.8 °F 29.74 in West 1.7 mph 3.5 mph 57 % 0.00 in
18:26 70.8 °F 55.3 °F 29.73 in Calm   2.3 mph 58 % 0.00 in
18:31 70.8 °F 55.8 °F 29.73 in WNW 2.8 mph 4.6 mph 59 % 0.00 in
18:37 70.9 °F 55.4 °F 29.74 in West 2.5 mph 6.9 mph 58 % 0.00 in
18:42 70.8 °F 55.3 °F 29.73 in WNW 3.1 mph 5.8 mph 58 % 0.00 in
18:47 70.7 °F 55.2 °F 29.74 in West 2.4 mph 6.9 mph 58 % 0.00 in
18:52 70.6 °F 55.1 °F 29.74 in SW 4.4 mph 8.1 mph 58 % 0.00 in
18:57 70.4 °F 55.4 °F 29.74 in WSW 7.3 mph 10.4 mph 59 % 0.00 in
19:02 70.1 °F 54.6 °F 29.74 in SSW 5.0 mph 11.5 mph 58 % 0.00 in
19:07 70.0 °F 54.5 °F 29.74 in WNW 5.7 mph 10.4 mph 58 % 0.00 in
19:12 69.7 °F 54.3 °F 29.74 in NE 2.5 mph 6.9 mph 58 % 0.00 in
19:17 69.5 °F 54.5 °F 29.74 in WNW 4.4 mph 9.2 mph 59 % 0.00 in
19:22 69.4 °F 54.4 °F 29.74 in NW 5.7 mph 11.5 mph 59 % 0.00 in
19:27 69.1 °F 54.2 °F 29.74 in WSW 2.5 mph 10.4 mph 59 % 0.00 in
19:33 68.9 °F 54.0 °F 29.74 in SW 5.9 mph 9.2 mph 59 % 0.00 in
19:37 68.7 °F 53.8 °F 29.75 in WNW 5.6 mph 12.7 mph 59 % 0.00 in
19:42 68.5 °F 54.1 °F 29.75 in WNW 4.1 mph 9.2 mph 60 % 0.00 in
19:47 68.2 °F 53.8 °F 29.75 in West 2.9 mph 4.6 mph 60 % 0.00 in
19:53 68.0 °F 54.0 °F 29.75 in WNW 2.8 mph 6.9 mph 61 % 0.00 in
19:58 67.7 °F 53.8 °F 29.75 in West 4.7 mph 8.1 mph 61 % 0.00 in
20:03 67.4 °F 53.9 °F 29.74 in WNW 2.3 mph 6.9 mph 62 % 0.00 in
20:08 67.2 °F 53.7 °F 29.74 in West 2.5 mph 6.9 mph 62 % 0.00 in
20:13 66.9 °F 53.5 °F 29.75 in West 3.7 mph 5.8 mph 62 % 0.00 in
20:18 66.7 °F 53.7 °F 29.75 in WNW 4.5 mph 7.0 mph 63 % 0.00 in
20:23 66.4 °F 53.8 °F 29.75 in WNW 4.0 mph 6.9 mph 64 % 0.00 in
20:28 66.1 °F 53.6 °F 29.75 in NW 6.8 mph 11.5 mph 64 % 0.00 in
20:33 65.9 °F 53.8 °F 29.76 in WSW 2.8 mph 6.0 mph 65 % 0.00 in
20:38 65.7 °F 53.6 °F 29.76 in West 4.2 mph 10.4 mph 65 % 0.00 in
20:44 65.5 °F 53.4 °F 29.76 in West 3.3 mph 5.8 mph 65 % 0.00 in
20:49 65.2 °F 53.1 °F 29.76 in NW 5.8 mph 11.5 mph 65 % 0.00 in
20:54 65.0 °F 53.4 °F 29.76 in West 5.2 mph 9.2 mph 66 % 0.00 in
20:59 64.9 °F 52.8 °F 29.76 in SW 4.9 mph 11.5 mph 65 % 0.00 in
21:04 64.8 °F 52.8 °F 29.76 in West 3.3 mph 9.2 mph 65 % 0.00 in
21:09 64.7 °F 53.1 °F 29.76 in WNW 4.4 mph 5.8 mph 66 % 0.00 in
21:14 64.5 °F 52.9 °F 29.76 in WNW 2.5 mph 10.4 mph 66 % 0.00 in
21:19 64.5 °F 52.9 °F 29.76 in WSW 0.8 mph 5.8 mph 66 % 0.00 in
21:24 64.3 °F 53.1 °F 29.77 in WNW 2.2 mph 9.2 mph 67 % 0.00 in
21:29 64.2 °F 53.0 °F 29.77 in WSW 3.8 mph 6.9 mph 67 % 0.00 in
21:35 64.1 °F 52.9 °F 29.77 in WNW 3.0 mph 3.5 mph 67 % 0.00 in
21:40 64.1 °F 53.3 °F 29.78 in West 1.9 mph 4.0 mph 68 % 0.00 in
21:45 64.0 °F 53.2 °F 29.78 in WNW 1.6 mph 4.0 mph 68 % 0.00 in
21:50 64.0 °F 53.2 °F 29.78 in WNW 3.8 mph 4.6 mph 68 % 0.00 in
22:00 63.9 °F 53.1 °F 29.77 in WSW 0.4 mph 3.5 mph 68 % 0.00 in
22:05 63.9 °F 53.1 °F 29.77 in WSW 1.2 mph 3.5 mph 68 % 0.00 in
22:10 63.9 °F 53.1 °F 29.77 in West 2.5 mph 4.6 mph 68 % 0.00 in
22:15 63.9 °F 53.1 °F 29.78 in WNW 2.8 mph 5.8 mph 68 % 0.00 in
22:20 63.8 °F 53.0 °F 29.78 in NW 0.5 mph 3.5 mph 68 % 0.00 in
22:25 63.8 °F 53.0 °F 29.78 in Calm   1.2 mph 68 % 0.00 in
22:30 63.8 °F 53.4 °F 29.78 in WNW 0.5 mph 4.6 mph 69 % 0.00 in
22:35 63.8 °F 53.4 °F 29.78 in NW 0.9 mph 3.5 mph 69 % 0.00 in
22:41 63.8 °F 53.8 °F 29.78 in North 2.2 mph 5.8 mph 70 % 0.00 in
22:46 63.8 °F 54.2 °F 29.78 in Calm   3.5 mph 71 % 0.00 in
22:51 63.8 °F 54.6 °F 29.78 in WNW 1.9 mph 4.6 mph 72 % 0.00 in
22:56 63.7 °F 54.1 °F 29.78 in WNW 2.6 mph 5.8 mph 71 % 0.00 in
23:01 63.7 °F 54.1 °F 29.78 in WNW 0.3 mph 3.5 mph 71 % 0.00 in
23:06 63.7 °F 54.1 °F 29.78 in West 1.3 mph 3.5 mph 71 % 0.00 in
23:11 63.7 °F 54.1 °F 29.78 in West 0.7 mph 3.5 mph 71 % 0.00 in
23:16 63.7 °F 54.5 °F 29.78 in West 1.9 mph 4.0 mph 72 % 0.00 in
23:21 63.7 °F 54.5 °F 29.78 in West 0.1 mph   72 % 0.00 in
23:26 63.7 °F 54.5 °F 29.79 in West 0.4 mph 1.0 mph 72 % 0.00 in
23:32 63.7 °F 54.9 °F 29.79 in WNW 2.3 mph 2.3 mph 73 % 0.00 in
23:37 63.7 °F 54.9 °F 29.80 in WNW 0.4 mph 2.3 mph 73 % 0.00 in
23:42 63.6 °F 55.2 °F 29.79 in Calm     74 % 0.00 in
23:47 63.6 °F 55.2 °F 29.79 in WNW 0.4 mph 2.3 mph 74 % 0.00 in
23:52 63.6 °F 55.2 °F 29.80 in WNW 0.2 mph 2.3 mph 74 % 0.00 in
23:57 63.5 °F 55.1 °F 29.80 in Calm     74 % 0.00 in
Crab Meadow Weather
Compliments of Weather Underground - 2.75 mb

Script developed by  Jim McMurry - jmcmurry@mwt.net Adapted for the template by  Wim van der Kuil - Leuven-Template.eu

Weather Terms: Freezing Rain/Freezing Drizzle - Rain or drizzle which falls in liquid form and freezes on impact with cold surfaces to form a glaze on the ground and exposed objects.